Time;durP1;ratioP1;P1;durP2;ratioP2;P2;SDS_P1;SDS_P2;PMS_P1;PMS_P2;Temp;Humidity;BMP_temperature;BMP_pressure;BME280_temperature;BME280_humidity;BME280_pressure;Samples;Min_cycle;Max_cycle;Signal;HPM_P1;HPM_P2
2022/11/21 00:02:15;;;;;;;9.88;5.97;;;6.30;67.90;;;;;;4984514;28;20173;-77
2022/11/21 00:04:59;;;;;;;7.20;5.45;;;6.30;67.90;;;;;;4987028;28;20806;-77
2022/11/21 00:07:44;;;;;;;12.73;6.32;;;6.30;68.00;;;;;;4986153;28;20046;-77
2022/11/21 00:10:29;;;;;;;11.80;6.32;;;6.30;68.00;;;;;;4975555;28;20620;-77
2022/11/21 00:13:16;;;;;;;11.35;6.25;;;6.20;67.80;;;;;;4986969;28;20209;-77
2022/11/21 00:16:06;;;;;;;10.70;5.38;;;6.20;67.90;;;;;;4975757;28;20045;-77
2022/11/21 00:18:50;;;;;;;11.57;4.93;;;6.20;67.90;;;;;;4979553;28;20844;-77
2022/11/21 00:21:35;;;;;;;10.35;5.68;;;6.20;67.90;;;;;;4985507;28;20037;-77
2022/11/21 00:24:19;;;;;;;10.00;5.05;;;6.20;67.90;;;;;;4986672;28;20135;-77
2022/11/21 00:27:04;;;;;;;12.68;5.65;;;6.20;67.90;;;;;;4982914;28;20666;-77
2022/11/21 00:29:48;;;;;;;12.52;5.30;;;6.20;68.00;;;;;;4970388;28;20073;-78
2022/11/21 00:32:33;;;;;;;10.63;4.80;;;6.20;68.00;;;;;;4985553;28;20116;-76
2022/11/21 00:35:18;;;;;;;11.80;4.53;;;6.20;68.00;;;;;;4976746;28;20081;-77
2022/11/21 00:38:02;;;;;;;7.68;4.13;;;6.20;67.90;;;;;;4984727;28;20096;-77
2022/11/21 00:40:47;;;;;;;8.88;4.32;;;6.20;68.00;;;;;;4981138;28;20449;-78
2022/11/21 00:43:32;;;;;;;6.63;3.65;;;6.20;68.00;;;;;;4985403;28;20061;-78
2022/11/21 00:46:16;;;;;;;8.57;3.80;;;6.20;68.00;;;;;;4978151;28;20127;-77
2022/11/21 00:49:01;;;;;;;10.38;4.47;;;6.20;68.00;;;;;;4985420;28;20946;-78
2022/11/21 00:51:45;;;;;;;10.55;3.92;;;6.20;68.00;;;;;;4986024;28;20049;-78
2022/11/21 00:54:29;;;;;;;11.63;5.22;;;6.20;68.00;;;;;;4981715;28;20129;-77
2022/11/21 00:57:14;;;;;;;7.53;4.50;;;6.20;68.00;;;;;;4984859;28;20049;-78
2022/11/21 00:59:58;;;;;;;9.60;3.53;;;6.20;68.10;;;;;;4979066;28;20041;-78
2022/11/21 01:02:43;;;;;;;7.32;3.35;;;6.20;68.10;;;;;;4985548;28;20117;-77
2022/11/21 01:05:30;;;;;;;10.90;4.03;;;6.20;68.10;;;;;;4968294;28;20045;-77
2022/11/21 01:08:14;;;;;;;7.90;3.10;;;6.20;68.10;;;;;;4979173;28;20386;-78
2022/11/21 01:11:05;;;;;;;8.23;3.92;;;6.20;68.10;;;;;;4983644;28;20165;-78
2022/11/21 01:13:53;;;;;;;7.47;3.88;;;6.10;68.00;;;;;;4984104;28;20048;-78
2022/11/21 01:16:37;;;;;;;10.57;3.92;;;6.20;68.20;;;;;;4981874;28;20037;-77
2022/11/21 01:19:22;;;;;;;10.18;3.65;;;6.20;68.10;;;;;;4980244;28;20052;-76
2022/11/21 01:22:07;;;;;;;5.00;3.13;;;6.20;68.10;;;;;;4971658;28;20174;-77
2022/11/21 01:24:51;;;;;;;10.32;4.00;;;6.20;68.20;;;;;;4984261;28;20049;-78
2022/11/21 01:27:36;;;;;;;11.55;3.67;;;6.10;68.00;;;;;;4993377;28;20065;-78
2022/11/21 01:30:20;;;;;;;9.18;3.78;;;6.10;68.00;;;;;;4992430;28;20105;-77
2022/11/21 01:33:05;;;;;;;9.02;3.78;;;6.20;68.20;;;;;;4988616;28;20398;-77
2022/11/21 01:35:49;;;;;;;9.18;3.13;;;6.10;68.00;;;;;;4992624;28;20038;-77
2022/11/21 01:38:34;;;;;;;11.40;3.92;;;6.10;68.00;;;;;;5007306;28;20049;-78
2022/11/21 01:41:22;;;;;;;9.63;3.53;;;6.10;68.00;;;;;;5006589;28;20069;-77
2022/11/21 01:44:15;;;;;;;8.93;3.22;;;6.10;68.10;;;;;;5005072;28;20109;-77
2022/11/21 01:47:00;;;;;;;10.77;3.40;;;6.10;68.10;;;;;;5005211;28;20077;-78
2022/11/21 01:49:45;;;;;;;14.27;3.47;;;6.10;68.10;;;;;;4980609;28;20037;-78
2022/11/21 01:52:32;;;;;;;10.32;3.38;;;6.10;68.10;;;;;;4989005;28;20654;-77
2022/11/21 01:55:18;;;;;;;9.00;2.97;;;6.10;68.10;;;;;;4987888;28;20054;-78
2022/11/21 01:58:03;;;;;;;7.03;3.85;;;6.10;68.10;;;;;;4987643;28;20166;-78
2022/11/21 02:00:49;;;;;;;6.03;2.95;;;6.10;68.10;;;;;;4981875;28;20049;-78
2022/11/21 02:03:36;;;;;;;6.10;2.60;;;6.20;68.30;;;;;;4979763;28;20088;-78
2022/11/21 02:06:20;;;;;;;8.35;3.15;;;6.20;68.30;;;;;;4967031;28;20049;-78
2022/11/21 02:09:06;;;;;;;7.68;3.20;;;6.20;68.30;;;;;;4979351;28;20823;-77
2022/11/21 02:11:56;;;;;;;10.93;2.47;;;6.20;68.30;;;;;;4984265;28;20045;-78
2022/11/21 02:14:43;;;;;;;8.18;2.55;;;6.20;68.30;;;;;;4984328;28;20112;-78
2022/11/21 02:17:31;;;;;;;9.35;2.70;;;6.20;68.20;;;;;;4975274;28;20057;-76
2022/11/21 02:20:18;;;;;;;6.50;2.42;;;6.20;68.20;;;;;;4984643;28;20776;-77
2022/11/21 02:23:17;;;;;;;10.30;3.47;;;6.20;68.20;;;;;;4974433;28;20512;-77
2022/11/21 02:26:02;;;;;;;8.32;2.92;;;6.20;68.20;;;;;;4984527;28;20048;-78
2022/11/21 02:28:46;;;;;;;11.73;3.17;;;6.20;68.20;;;;;;4984213;28;20184;-77
2022/11/21 02:31:31;;;;;;;6.47;2.65;;;6.20;68.20;;;;;;4983403;28;20053;-77
2022/11/21 02:34:15;;;;;;;7.30;2.80;;;6.30;68.30;;;;;;4972759;28;20094;-78
2022/11/21 02:37:01;;;;;;;7.57;2.47;;;6.30;68.40;;;;;;4985360;28;20037;-77
2022/11/21 02:39:46;;;;;;;5.40;2.47;;;6.30;68.40;;;;;;4983783;28;20189;-77
2022/11/21 02:42:44;;;;;;;8.68;2.60;;;6.30;68.40;;;;;;4980247;28;20120;-78
2022/11/21 02:45:33;;;;;;;7.80;2.67;;;6.30;68.40;;;;;;4981674;28;20037;-78
2022/11/21 02:48:17;;;;;;;7.70;2.25;;;6.30;68.40;;;;;;4979295;28;20144;-77
2022/11/21 02:51:02;;;;;;;10.20;3.22;;;6.30;68.40;;;;;;4988870;28;20078;-79
2022/11/21 02:53:47;;;;;;;14.55;3.90;;;6.30;68.40;;;;;;4972999;28;20090;-78
2022/11/21 02:56:31;;;;;;;8.52;2.70;;;6.30;68.40;;;;;;4991409;28;20049;-79
2022/11/21 02:59:16;;;;;;;7.80;2.58;;;6.30;68.40;;;;;;4990669;28;20125;-78
2022/11/21 03:02:01;;;;;;;8.25;2.70;;;6.40;68.60;;;;;;4987823;28;20037;-78
2022/11/21 03:04:45;;;;;;;11.73;2.85;;;6.40;69.10;;;;;;4993058;28;20085;-78
2022/11/21 03:07:30;;;;;;;10.73;2.90;;;6.40;68.60;;;;;;4991409;28;20046;-78
2022/11/21 03:10:15;;;;;;;12.18;2.97;;;6.40;68.60;;;;;;4991192;28;20524;-78
2022/11/21 03:13:02;;;;;;;12.77;3.00;;;6.40;68.50;;;;;;4984658;28;20062;-78
2022/11/21 03:15:46;;;;;;;11.18;3.00;;;6.50;68.70;;;;;;4985440;28;20378;-78
2022/11/21 03:18:31;;;;;;;13.23;3.08;;;6.50;68.70;;;;;;4984028;28;20037;-77
2022/11/21 03:21:16;;;;;;;9.23;2.63;;;6.60;68.90;;;;;;4987360;28;20100;-78
2022/11/21 03:24:00;;;;;;;6.53;2.33;;;6.60;68.90;;;;;;4990702;28;20437;-78
2022/11/21 03:26:45;;;;;;;10.68;3.15;;;6.60;68.90;;;;;;4983221;28;20041;-78
2022/11/21 03:29:29;;;;;;;11.60;2.67;;;6.60;68.90;;;;;;4986296;28;20105;-78
2022/11/21 03:32:14;;;;;;;8.07;3.08;;;6.70;69.00;;;;;;4989382;28;20444;-78
2022/11/21 03:34:58;;;;;;;8.63;2.28;;;6.70;69.00;;;;;;4978392;28;20041;-78
2022/11/21 03:37:43;;;;;;;7.40;2.97;;;6.70;69.10;;;;;;4987811;28;20048;-78
2022/11/21 03:40:28;;;;;;;11.10;2.78;;;6.70;69.10;;;;;;4989379;28;20049;-77
2022/11/21 03:43:12;;;;;;;12.18;3.05;;;6.70;69.10;;;;;;4984488;28;20411;-77
2022/11/21 03:45:57;;;;;;;11.63;2.63;;;6.80;69.20;;;;;;4981320;28;20425;-77
2022/11/21 03:48:42;;;;;;;14.07;3.22;;;6.80;69.20;;;;;;4977321;28;20065;-78
2022/11/21 03:51:27;;;;;;;10.00;2.70;;;6.80;69.20;;;;;;4979760;28;20539;-82
2022/11/21 03:54:11;;;;;;;9.88;2.08;;;6.80;69.20;;;;;;4991707;28;20089;-82
2022/11/21 03:56:55;;;;;;;11.88;2.83;;;6.90;69.40;;;;;;4989934;28;20073;-80
2022/11/21 03:59:40;;;;;;;11.45;3.05;;;6.90;69.40;;;;;;4991194;28;20057;-79
2022/11/21 04:02:25;;;;;;;11.60;2.90;;;6.90;69.50;;;;;;4992329;28;20049;-78
2022/11/21 04:05:09;;;;;;;10.90;2.58;;;7.00;69.60;;;;;;4992069;28;20045;-78
2022/11/21 04:07:54;;;;;;;11.98;2.80;;;7.00;69.60;;;;;;4991470;28;20116;-79
2022/11/21 04:10:38;;;;;;;10.77;2.78;;;7.00;69.60;;;;;;4990576;28;20145;-79
2022/11/21 04:13:23;;;;;;;13.65;3.58;;;7.00;69.60;;;;;;4986904;28;20088;-79
2022/11/21 04:16:08;;;;;;;13.13;3.63;;;7.10;69.80;;;;;;4987979;28;20080;-79
2022/11/21 04:18:52;;;;;;;9.75;2.95;;;7.10;69.80;;;;;;4986154;28;20975;-79
2022/11/21 04:21:37;;;;;;;10.82;2.58;;;7.10;69.80;;;;;;4990368;28;20100;-79
2022/11/21 04:24:22;;;;;;;11.55;4.15;;;7.20;70.00;;;;;;4985616;28;20061;-79
2022/11/21 04:27:06;;;;;;;8.15;2.40;;;7.20;70.00;;;;;;4980027;28;20037;-79
2022/11/21 04:29:50;;;;;;;14.30;2.95;;;7.30;70.10;;;;;;4990963;28;20089;-79
2022/11/21 04:32:35;;;;;;;13.88;4.25;;;7.30;70.10;;;;;;4989643;28;20045;-79
2022/11/21 04:35:21;;;;;;;11.95;3.03;;;7.30;70.20;;;;;;4979961;28;20522;-79
2022/11/21 04:38:05;;;;;;;11.57;2.42;;;7.30;70.20;;;;;;4988695;28;20509;-80
2022/11/21 04:40:50;;;;;;;19.05;4.43;;;7.30;70.20;;;;;;4985190;28;20085;-79
2022/11/21 04:43:35;;;;;;;11.32;2.65;;;7.40;70.40;;;;;;4979803;28;20050;-79
2022/11/21 04:46:19;;;;;;;14.65;2.95;;;7.40;70.40;;;;;;4978066;28;20137;-78
2022/11/21 04:49:04;;;;;;;13.50;3.58;;;7.40;70.40;;;;;;4991774;28;20133;-79
2022/11/21 04:51:48;;;;;;;6.53;2.35;;;7.40;70.40;;;;;;4976752;28;20127;-79
2022/11/21 04:54:33;;;;;;;15.35;3.63;;;7.40;70.40;;;;;;4992247;28;20041;-79
2022/11/21 04:57:17;;;;;;;11.15;2.60;;;7.50;70.60;;;;;;4976147;28;20053;-78
2022/11/21 05:00:03;;;;;;;10.63;2.75;;;7.50;70.70;;;;;;4984130;28;20054;-79
2022/11/21 05:02:48;;;;;;;11.23;2.90;;;7.50;70.60;;;;;;4980109;28;20104;-78
2022/11/21 05:05:32;;;;;;;12.15;2.70;;;7.50;70.60;;;;;;4978061;28;20543;-78
2022/11/21 05:08:17;;;;;;;11.60;2.63;;;7.60;70.80;;;;;;4980305;28;20049;-78
2022/11/21 05:14:05;;;;;;;12.82;3.15;;;7.60;70.80;;;;;;4993861;28;20049;-78
2022/11/21 05:16:49;;;;;;;13.98;3.00;;;7.70;71.00;;;;;;4978116;28;20096;-77
2022/11/21 05:19:34;;;;;;;11.50;3.38;;;7.70;71.00;;;;;;4983687;28;20068;-78
2022/11/21 05:22:19;;;;;;;13.63;3.00;;;7.70;70.90;;;;;;4983119;28;20041;-79
2022/11/21 05:25:03;;;;;;;14.13;3.20;;;7.70;70.90;;;;;;4990327;28;20057;-79
2022/11/21 05:27:48;;;;;;;8.70;2.55;;;7.80;71.10;;;;;;4987753;28;20057;-78
2022/11/21 05:30:33;;;;;;;14.73;2.90;;;7.80;71.10;;;;;;4981983;28;20081;-78
2022/11/21 05:33:18;;;;;;;10.55;2.65;;;7.80;71.10;;;;;;4983088;28;20077;-78
2022/11/21 05:36:02;;;;;;;13.50;3.42;;;7.90;71.30;;;;;;4985560;28;20053;-79
2022/11/21 05:38:47;;;;;;;11.40;2.30;;;7.90;71.20;;;;;;4988228;28;20498;-79
2022/11/21 05:41:31;;;;;;;16.55;4.68;;;8.00;71.40;;;;;;4976587;28;20062;-79
2022/11/21 05:44:16;;;;;;;7.95;2.65;;;8.00;71.40;;;;;;4985208;28;20056;-79
2022/11/21 05:47:00;;;;;;;9.95;2.63;;;8.00;71.40;;;;;;4986358;28;20125;-79
2022/11/21 05:49:45;;;;;;;13.75;3.95;;;8.00;71.40;;;;;;4994485;28;20046;-79
2022/11/21 05:52:30;;;;;;;9.57;4.18;;;8.10;71.60;;;;;;4984231;28;20477;-79
2022/11/21 05:55:15;;;;;;;12.02;3.15;;;8.10;71.50;;;;;;4983685;28;20870;-79
2022/11/21 05:58:00;;;;;;;11.40;2.50;;;8.10;71.60;;;;;;4979904;28;20121;-79
2022/11/21 06:00:44;;;;;;;14.23;3.45;;;8.20;71.70;;;;;;4982656;28;20804;-78
2022/11/21 06:03:32;;;;;;;7.40;2.28;;;8.20;71.70;;;;;;4982702;28;20060;-78
2022/11/21 06:06:16;;;;;;;10.77;3.22;;;8.20;71.70;;;;;;4984504;28;20568;-79
2022/11/21 06:09:02;;;;;;;10.73;2.85;;;8.30;71.90;;;;;;4982976;28;20446;-79
2022/11/21 06:11:47;;;;;;;8.57;2.88;;;8.30;71.90;;;;;;4983272;28;20100;-79
2022/11/21 06:14:31;;;;;;;12.82;2.75;;;8.30;71.90;;;;;;4984645;28;20053;-77
2022/11/21 06:17:15;;;;;;;12.30;3.13;;;8.40;72.00;;;;;;4978715;28;20119;-84
2022/11/21 06:20:00;;;;;;;14.95;2.90;;;8.40;72.00;;;;;;4977893;28;20065;-84
2022/11/21 06:22:45;;;;;;;14.80;2.58;;;8.40;71.90;;;;;;4988513;28;20049;-86
2022/11/21 06:25:29;;;;;;;12.13;2.63;;;8.50;72.10;;;;;;4993132;28;20084;-89
2022/11/21 06:28:14;;;;;;;12.55;3.05;;;8.50;72.10;;;;;;4992177;28;20454;-87
2022/11/21 06:31:07;;;;;;;9.93;3.83;;;8.50;72.10;;;;;;4980631;28;20048;-92
2022/11/21 06:33:54;;;;;;;13.15;2.53;;;8.50;72.10;;;;;;4975020;28;20136;-84
2022/11/21 06:36:38;;;;;;;14.13;3.63;;;8.60;72.20;;;;;;4985253;28;20045;-82
2022/11/21 06:39:23;;;;;;;12.43;2.58;;;8.70;72.40;;;;;;4991883;28;20069;-86
2022/11/21 06:42:07;;;;;;;11.63;3.67;;;8.70;72.40;;;;;;4997028;28;20124;-85
2022/11/21 06:44:52;;;;;;;10.85;2.15;;;8.70;72.40;;;;;;4976802;28;20046;-84
2022/11/21 06:47:36;;;;;;;10.10;3.63;;;8.70;72.40;;;;;;4980357;28;20125;-85
2022/11/21 06:50:21;;;;;;;14.32;3.67;;;8.70;72.40;;;;;;4989102;28;20509;-83
2022/11/21 06:53:06;;;;;;;14.98;3.28;;;8.80;72.70;;;;;;4985571;28;20121;-87
2022/11/21 06:55:50;;;;;;;10.98;2.40;;;8.80;72.60;;;;;;4984558;28;20046;-85
2022/11/21 06:58:36;;;;;;;9.10;2.63;;;8.80;72.60;;;;;;4983629;28;20557;-81
2022/11/21 07:01:22;;;;;;;17.02;3.00;;;8.80;72.60;;;;;;4982680;28;20049;-80
2022/11/21 07:04:06;;;;;;;12.55;3.50;;;8.90;72.80;;;;;;4983691;28;20421;-77
2022/11/21 07:06:50;;;;;;;14.30;2.90;;;8.90;72.80;;;;;;4983287;28;20058;-80
2022/11/21 07:09:35;;;;;;;13.38;4.47;;;8.90;72.70;;;;;;4974426;28;20215;-84
2022/11/21 07:15:23;;;;;;;13.07;4.03;;;9.00;72.90;;;;;;4977475;28;20070;-80
2022/11/21 07:18:07;;;;;;;10.68;3.55;;;9.00;72.80;;;;;;4982812;28;20411;-79
2022/11/21 07:21:00;;;;;;;16.23;3.67;;;9.00;72.90;;;;;;4985954;28;20089;-91
2022/11/21 07:23:44;;;;;;;14.15;3.30;;;9.10;73.30;;;;;;4968632;28;20200;-82
2022/11/21 07:26:29;;;;;;;13.32;3.53;;;9.20;73.50;;;;;;4980523;28;20042;-82
2022/11/21 07:29:13;;;;;;;14.77;3.15;;;9.20;73.60;;;;;;4981255;28;20096;-79
2022/11/21 07:31:58;;;;;;;13.77;3.70;;;9.20;73.70;;;;;;4974600;28;20567;-79
2022/11/21 07:34:43;;;;;;;12.75;3.00;;;9.20;73.70;;;;;;4977543;28;20034;-78
2022/11/21 07:37:27;;;;;;;12.43;2.85;;;9.20;73.80;;;;;;4981344;28;20045;-79
2022/11/21 07:40:12;;;;;;;12.98;2.45;;;9.20;73.90;;;;;;4976634;28;20565;-78
2022/11/21 07:43:04;;;;;;;10.80;3.38;;;9.20;73.90;;;;;;4981034;28;20179;-86
2022/11/21 07:45:49;;;;;;;12.00;2.97;;;9.20;74.00;;;;;;4974618;28;20257;-86
2022/11/21 07:48:33;;;;;;;8.93;2.65;;;9.30;74.20;;;;;;4984289;28;20080;-86
2022/11/21 07:51:18;;;;;;;12.48;3.28;;;9.20;74.00;;;;;;4974537;28;20096;-85
2022/11/21 07:54:03;;;;;;;11.07;2.92;;;9.20;74.10;;;;;;4986957;28;20077;-85
2022/11/21 07:56:47;;;;;;;10.70;2.47;;;9.20;74.10;;;;;;4980376;28;20509;-87
2022/11/21 07:59:32;;;;;;;8.80;2.58;;;9.30;74.20;;;;;;4983166;28;20174;-88
2022/11/21 08:02:27;;;;;;;10.70;2.70;;;9.30;74.30;;;;;;4986322;28;20119;-90
2022/11/21 08:05:11;;;;;;;12.63;2.72;;;9.30;74.20;;;;;;4989467;28;20045;-93
2022/11/21 08:07:56;;;;;;;13.50;2.65;;;9.30;74.20;;;;;;4980296;28;20554;-86
2022/11/21 08:10:42;;;;;;;12.25;3.40;;;9.30;74.20;;;;;;4983314;28;20073;-85
2022/11/21 08:13:28;;;;;;;11.38;2.83;;;9.30;74.20;;;;;;4988468;28;20045;-82
2022/11/21 08:16:12;;;;;;;11.13;2.92;;;9.30;74.10;;;;;;4991259;28;20042;-81
2022/11/21 08:18:57;;;;;;;10.10;3.13;;;9.30;74.10;;;;;;4995918;28;20552;-84
2022/11/21 08:21:42;;;;;;;7.28;2.92;;;9.40;74.30;;;;;;4998469;28;20058;-82
2022/11/21 08:24:27;;;;;;;11.13;3.33;;;9.30;74.10;;;;;;5000860;28;20070;-79
2022/11/21 08:27:11;;;;;;;11.00;2.72;;;9.40;74.80;;;;;;4998444;28;20061;-83
2022/11/21 08:29:56;;;;;;;10.15;2.53;;;9.40;74.20;;;;;;4991308;28;20048;-83
2022/11/21 08:32:41;;;;;;;12.02;2.67;;;9.40;74.20;;;;;;4987014;28;20125;-81
2022/11/21 08:35:26;;;;;;;8.27;3.17;;;9.40;74.20;;;;;;4987803;28;20632;-80
2022/11/21 08:38:10;;;;;;;12.40;3.40;;;9.40;74.20;;;;;;4986781;28;20100;-82
2022/11/21 08:43:58;;;;;;;13.88;3.42;;;9.40;74.20;;;;;;4974089;28;20569;-81
2022/11/21 08:46:43;;;;;;;9.00;2.70;;;9.40;74.20;;;;;;4978806;28;20053;-81
2022/11/21 08:49:28;;;;;;;9.43;2.65;;;9.40;74.10;;;;;;4986743;28;20173;-88
2022/11/21 08:52:14;;;;;;;11.85;3.15;;;9.40;74.10;;;;;;4980137;28;20038;-81
2022/11/21 08:54:58;;;;;;;8.63;2.50;;;9.50;74.30;;;;;;4989296;28;20166;-83
2022/11/21 08:57:43;;;;;;;9.35;2.95;;;9.50;74.20;;;;;;4989153;28;20062;-89
2022/11/21 09:00:27;;;;;;;12.55;2.88;;;9.50;74.20;;;;;;4980619;28;20053;-81
2022/11/21 09:03:12;;;;;;;10.50;3.45;;;9.50;74.20;;;;;;4984774;28;20045;-90
2022/11/21 09:05:57;;;;;;;10.02;3.10;;;9.60;74.30;;;;;;4974818;28;20208;-83
2022/11/21 09:08:43;;;;;;;9.57;2.67;;;9.60;74.20;;;;;;4969162;28;20112;-84
2022/11/21 09:11:28;;;;;;;12.15;3.60;;;9.60;74.20;;;;;;4967925;28;20053;-84
2022/11/21 09:20:19;;;;;;;15.57;4.05;;;9.70;74.40;;;;;;4984203;28;20588;-80
2022/11/21 09:23:11;;;;;;;8.82;2.80;;;9.80;74.60;;;;;;4984533;28;20134;-80
2022/11/21 09:25:58;;;;;;;15.13;3.08;;;9.90;74.90;;;;;;4986253;28;20041;-80
2022/11/21 09:28:43;;;;;;;10.85;3.45;;;9.90;74.90;;;;;;4983595;28;20077;-82
2022/11/21 09:31:27;;;;;;;9.07;2.75;;;9.90;74.90;;;;;;4984827;28;20041;-80
2022/11/21 09:34:12;;;;;;;8.07;2.67;;;10.00;75.20;;;;;;4972748;28;20116;-81
2022/11/21 09:36:57;;;;;;;10.38;4.05;;;10.00;75.20;;;;;;4975947;28;20548;-81
2022/11/21 09:39:42;;;;;;;10.10;3.72;;;10.00;75.20;;;;;;4984099;28;20061;-81
2022/11/21 09:43:05;;;;;;;8.20;3.47;;;10.00;75.20;;;;;;4984911;28;20041;-83
2022/11/21 09:45:51;;;;;;;7.68;3.13;;;10.00;75.30;;;;;;4974384;28;20042;-81
2022/11/21 09:48:42;;;;;;;11.57;2.72;;;10.10;75.40;;;;;;4984685;28;20061;-82
2022/11/21 09:51:30;;;;;;;11.25;3.50;;;10.10;75.40;;;;;;4974638;28;20116;-82
2022/11/21 09:54:14;;;;;;;9.05;2.45;;;10.10;75.30;;;;;;4983472;28;20398;-82
2022/11/21 09:57:00;;;;;;;9.20;2.95;;;10.10;75.20;;;;;;4984736;28;20799;-84
2022/11/21 09:59:46;;;;;;;7.65;2.70;;;10.20;75.40;;;;;;4984794;28;20088;-83
2022/11/21 10:02:31;;;;;;;8.77;3.65;;;10.20;75.30;;;;;;4973276;28;20096;-83
2022/11/21 10:05:16;;;;;;;10.95;2.72;;;10.20;75.30;;;;;;4986072;28;20076;-82
2022/11/21 10:08:14;;;;;;;7.78;2.28;;;10.30;75.40;;;;;;4986068;28;20049;-80
2022/11/21 10:11:13;;;;;;;7.75;2.33;;;10.30;75.30;;;;;;4978588;28;20198;-80
2022/11/21 10:14:26;;;;;;;9.48;1.90;;;10.30;75.30;;;;;;4973724;28;20061;-79
2022/11/21 10:17:34;;;;;;;8.30;2.20;;;10.30;75.20;;;;;;4972702;28;20044;-80
2022/11/21 10:20:56;;;;;;;5.03;2.05;;;10.40;75.30;;;;;;4984861;28;20489;-79
2022/11/21 10:24:12;;;;;;;7.00;2.40;;;10.40;75.30;;;;;;4975040;28;20052;-87
2022/11/21 10:27:06;;;;;;;10.45;3.78;;;10.40;75.20;;;;;;4986296;28;20260;-79
2022/11/21 10:29:56;;;;;;;7.30;2.10;;;10.40;75.20;;;;;;4985509;28;20093;-79
2022/11/21 10:32:45;;;;;;;5.88;2.60;;;10.40;75.20;;;;;;4984258;28;20041;-79
2022/11/21 10:35:40;;;;;;;7.65;2.58;;;10.50;75.30;;;;;;4976512;28;20061;-76
2022/11/21 10:38:28;;;;;;;9.07;2.90;;;10.50;75.20;;;;;;4985863;28;20406;-79
2022/11/21 10:41:39;;;;;;;6.68;2.25;;;10.50;75.20;;;;;;4981139;28;20089;-86
2022/11/21 10:47:36;;;;;;;11.85;3.28;;;10.60;75.30;;;;;;4985807;28;20108;-83
2022/11/21 10:50:39;;;;;;;6.90;2.22;;;10.70;75.30;;;;;;4982635;28;20064;-76
2022/11/21 10:56:33;;;;;;;7.38;1.95;;;10.80;75.30;;;;;;4980564;28;20094;-76
2022/11/21 10:59:26;;;;;;;8.20;2.10;;;10.90;75.20;;;;;;4979190;28;20096;-76
2022/11/21 11:02:13;;;;;;;7.70;1.55;;;11.00;75.20;;;;;;4983463;28;20108;-76
2022/11/21 11:05:20;;;;;;;7.90;3.05;;;11.10;75.10;;;;;;4977890;28;20057;-76
2022/11/21 11:08:13;;;;;;;4.13;2.47;;;11.20;75.00;;;;;;4980105;28;20069;-76
2022/11/21 11:11:06;;;;;;;4.75;1.60;;;11.40;75.00;;;;;;4976749;28;20061;-77
2022/11/21 11:14:00;;;;;;;8.75;1.80;;;11.40;74.90;;;;;;4972841;28;20041;-76
2022/11/21 11:16:46;;;;;;;7.28;1.80;;;11.50;74.90;;;;;;4985243;28;20052;-77
2022/11/21 11:19:30;;;;;;;4.28;1.67;;;11.50;74.80;;;;;;4980122;28;20061;-77
2022/11/21 11:22:27;;;;;;;5.05;1.50;;;11.60;74.80;;;;;;4988330;28;20049;-77
2022/11/21 11:25:12;;;;;;;6.32;1.60;;;11.70;74.90;;;;;;4975390;28;20049;-77
2022/11/21 11:28:05;;;;;;;5.07;1.48;;;11.80;75.00;;;;;;4986727;28;20062;-77
2022/11/21 11:30:54;;;;;;;3.97;1.50;;;11.80;74.90;;;;;;4985553;28;20500;-77
2022/11/21 11:33:50;;;;;;;9.77;2.17;;;11.80;74.70;;;;;;4972046;28;20391;-77
2022/11/21 11:36:54;;;;;;;4.55;1.58;;;11.90;74.70;;;;;;4975328;28;20041;-77
2022/11/21 11:39:51;;;;;;;5.05;2.30;;;12.10;74.90;;;;;;4986524;28;20053;-77
2022/11/21 11:47:29;;;;;;;3.70;1.40;;;12.20;74.70;;;;;;4978879;28;20125;-77
2022/11/21 11:50:12;;;;;;;4.70;1.60;;;12.20;74.50;;;;;;4981113;28;20183;-95
2022/11/21 11:53:21;;;;;;;7.97;2.90;;;12.30;74.50;;;;;;4975909;28;20053;-85
2022/11/21 11:56:26;;;;;;;4.00;1.50;;;12.40;74.70;;;;;;4975308;28;20045;-80
2022/11/21 11:59:43;;;;;;;6.50;1.67;;;12.40;74.90;;;;;;4986568;28;20542;-82
2022/11/21 12:03:19;;;;;;;19.75;3.95;;;12.50;75.00;;;;;;4985712;28;20058;-82
2022/11/21 12:06:23;;;;;;;6.20;1.98;;;12.60;75.20;;;;;;4959553;28;20042;-83
2022/11/21 12:09:25;;;;;;;4.03;1.38;;;12.60;75.10;;;;;;4976953;28;20057;-81
2022/11/21 12:12:22;;;;;;;5.60;1.45;;;12.60;75.10;;;;;;4985202;28;20471;-81
2022/11/21 12:18:40;;;;;;;3.05;1.20;;;12.60;75.30;;;;;;4979704;28;20057;-86
2022/11/21 12:21:25;;;;;;;4.45;1.63;;;12.60;75.30;;;;;;4986846;28;20409;-77
2022/11/21 12:24:11;;;;;;;5.45;1.90;;;12.60;75.30;;;;;;4983953;28;20058;-78
2022/11/21 12:27:03;;;;;;;3.60;1.50;;;12.60;75.30;;;;;;4985358;28;20544;-79
2022/11/21 12:30:18;;;;;;;3.70;1.63;;;12.60;75.40;;;;;;4983095;28;20049;-78
2022/11/21 12:33:11;;;;;;;2.97;0.95;;;12.60;75.30;;;;;;4980726;28;20045;-78
2022/11/21 12:35:55;;;;;;;2.15;0.70;;;12.60;75.30;;;;;;4980824;28;20072;-78
2022/11/21 12:39:01;;;;;;;5.03;1.55;;;12.60;75.30;;;;;;4984561;28;20097;-80
2022/11/21 12:45:04;;;;;;;3.17;1.23;;;12.50;75.10;;;;;;4973804;28;20116;-77
2022/11/21 12:55:17;;;;;;;3.85;1.85;;;12.50;75.00;;;;;;4982088;28;20045;-77
2022/11/21 12:58:05;;;;;;;;;;;12.50;74.90;;;;;;4981395;28;20089;-76
2022/11/21 13:01:10;;;;;;;11.45;2.42;;;12.50;74.90;;;;;;4984596;28;19920;-77
2022/11/21 13:04:04;;;;;;;4.85;1.75;;;12.60;75.00;;;;;;4984008;28;20520;-76
2022/11/21 13:06:49;;;;;;;8.93;2.55;;;12.60;75.00;;;;;;4979988;28;20169;-75
2022/11/21 13:09:39;;;;;;;6.15;2.22;;;12.70;75.00;;;;;;4981430;28;20094;-77
2022/11/21 13:12:44;;;;;;;11.35;3.40;;;12.80;75.10;;;;;;4985470;28;20100;-76
2022/11/21 13:15:39;;;;;;;10.20;2.83;;;12.90;75.00;;;;;;4978340;28;20340;-79
2022/11/21 13:18:35;;;;;;;12.77;2.13;;;13.00;74.90;;;;;;4981139;28;20084;-76
2022/11/21 13:21:39;;;;;;;12.45;3.30;;;13.10;74.80;;;;;;4973033;28;20101;-77
2022/11/21 13:24:55;;;;;;;11.95;2.33;;;13.30;74.80;;;;;;4986072;28;20636;-76
2022/11/21 13:27:40;;;;;;;12.35;2.70;;;13.40;74.50;;;;;;4975606;28;20081;-76
2022/11/21 13:30:25;;;;;;;14.88;2.83;;;13.50;74.50;;;;;;4984430;28;20060;-76
2022/11/21 13:33:35;;;;;;;14.60;3.17;;;13.50;74.30;;;;;;4980661;28;20089;-76
2022/11/21 13:36:28;;;;;;;11.13;2.33;;;13.50;74.20;;;;;;4971211;28;20125;-76
2022/11/21 13:39:16;;;;;;;8.13;1.70;;;13.50;74.40;;;;;;4984801;28;20104;-79
2022/11/21 13:45:39;;;;;;;10.52;3.25;;;13.40;74.40;;;;;;4972983;28;21139;-77
2022/11/21 13:48:30;;;;;;;7.82;1.90;;;13.30;74.30;;;;;;4976748;28;20054;-76
2022/11/21 13:51:42;;;;;;;6.28;1.55;;;13.30;74.50;;;;;;4974271;28;20041;-78
2022/11/21 13:54:41;;;;;;;5.30;1.15;;;13.30;74.40;;;;;;4972694;28;20287;-77
2022/11/21 13:57:41;;;;;;;4.82;1.58;;;13.30;74.40;;;;;;4985953;28;20046;-77
2022/11/21 14:00:51;;;;;;;3.42;1.10;;;13.30;74.20;;;;;;4989430;28;20043;-79
2022/11/21 14:04:02;;;;;;;6.80;1.38;;;13.30;74.00;;;;;;4992995;28;20053;-78
2022/11/21 14:06:47;;;;;;;5.53;1.50;;;13.30;73.90;;;;;;4985247;28;20129;-81
2022/11/21 14:09:35;;;;;;;2.53;1.35;;;13.40;74.00;;;;;;4986605;28;20076;-78
2022/11/21 14:12:22;;;;;;;2.63;1.75;;;13.30;73.70;;;;;;4991003;28;20073;-80
2022/11/21 14:15:50;;;;;;;2.38;1.15;;;13.40;73.70;;;;;;4985316;28;20755;-80
2022/11/21 14:18:37;;;;;;;2.33;0.82;;;13.30;73.30;;;;;;4983596;28;20044;-78
2022/11/21 14:21:26;;;;;;;2.53;1.75;;;13.30;73.40;;;;;;4984351;28;20041;-79
2022/11/21 14:24:18;;;;;;;3.72;1.35;;;13.30;73.30;;;;;;4978177;28;20332;-81
2022/11/21 14:27:05;;;;;;;2.65;0.88;;;13.30;73.30;;;;;;4973244;28;20041;-79
2022/11/21 14:29:50;;;;;;;3.30;0.90;;;13.20;73.10;;;;;;4983846;28;20573;-77
2022/11/21 14:32:34;;;;;;;2.00;0.90;;;13.20;73.10;;;;;;4979167;28;20497;-77
2022/11/21 14:35:21;;;;;;;0.95;0.60;;;13.10;72.90;;;;;;4975320;28;20053;-78
2022/11/21 14:38:06;;;;;;;1.95;1.00;;;13.00;72.80;;;;;;4982915;28;20045;-78
2022/11/21 14:41:30;;;;;;;1.50;1.13;;;13.00;72.90;;;;;;4980286;28;20093;-78
2022/11/21 14:44:15;;;;;;;;;;;12.90;72.70;;;;;;4973685;28;20041;-79
2022/11/21 14:47:32;;;;;;;3.30;0.90;;;12.90;72.90;;;;;;4970075;28;19929;-81
2022/11/21 14:50:22;;;;;;;2.97;0.90;;;12.90;72.80;;;;;;4967376;28;20060;-83
2022/11/21 14:53:10;;;;;;;5.47;1.30;;;12.80;72.70;;;;;;4973636;28;20197;-83
2022/11/21 14:55:55;;;;;;;4.95;1.10;;;12.80;73.00;;;;;;4983428;28;20081;-85
2022/11/21 14:58:40;;;;;;;1.13;0.75;;;12.80;73.20;;;;;;4983117;28;20053;-83
2022/11/21 15:01:27;;;;;;;1.90;0.90;;;12.80;73.20;;;;;;4981293;28;20113;-81
2022/11/21 15:04:14;;;;;;;2.60;1.08;;;12.80;73.20;;;;;;4972062;28;20052;-81
2022/11/21 15:06:58;;;;;;;3.47;0.80;;;12.80;73.20;;;;;;4984969;28;20045;-80
2022/11/21 15:09:43;;;;;;;3.95;0.70;;;12.70;73.10;;;;;;4967450;28;20041;-77
2022/11/21 15:12:49;;;;;;;2.50;0.90;;;12.70;73.10;;;;;;4973098;28;20073;-77
2022/11/21 15:15:38;;;;;;;2.05;0.80;;;12.70;73.10;;;;;;4964339;28;20610;-76
2022/11/21 15:18:24;;;;;;;2.85;0.65;;;12.60;73.00;;;;;;4981337;28;20044;-76
2022/11/21 15:21:13;;;;;;;1.48;0.80;;;12.60;73.00;;;;;;4983775;28;20045;-79
2022/11/21 15:24:14;;;;;;;2.38;0.95;;;12.70;73.10;;;;;;4983663;28;20627;-79